Time;durP1;ratioP1;P1;durP2;ratioP2;P2;SDS_P1;SDS_P2;PMS_P1;PMS_P2;Temp;Humidity;BMP_temperature;BMP_pressure;BME280_temperature;BME280_humidity;BME280_pressure;Samples;Min_cycle;Max_cycle;Signal;HPM_P1;HPM_P2
2023/06/10 00:01:31;;;;;;;8.77;7.47;;;;;;;;;;5094692;28;20202;-68
2023/06/10 00:03:57;;;;;;;7.77;6.97;;;;;;;;;;5093708;28;20196;-70
2023/06/10 00:06:24;;;;;;;7.83;7.10;;;;;;;;;;5076347;28;20183;-68
2023/06/10 00:08:50;;;;;;;8.47;7.70;;;;;;;;;;5095035;28;20199;-69
2023/06/10 00:11:16;;;;;;;8.40;6.93;;;;;;;;;;5094294;28;20196;-69
2023/06/10 00:13:42;;;;;;;7.10;6.50;;;;;;;;;;5076371;28;20181;-68
2023/06/10 00:16:08;;;;;;;10.43;7.27;;;;;;;;;;5094790;28;20260;-68
2023/06/10 00:18:36;;;;;;;8.80;7.83;;;;;;;;;;5094344;28;20180;-68
2023/06/10 00:21:04;;;;;;;8.27;7.47;;;;;;;;;;5094454;28;20204;-68
2023/06/10 00:23:37;;;;;;;8.77;7.47;;;;;;;;;;5075955;28;20621;-68
2023/06/10 00:26:03;;;;;;;7.87;7.07;;;;;;;;;;5075995;28;20173;-69
2023/06/10 00:28:29;;;;;;;11.00;7.50;;;;;;;;;;5094016;28;20177;-68
2023/06/10 00:30:55;;;;;;;9.03;7.13;;;;;;;;;;5093914;28;20187;-68
2023/06/10 00:33:21;;;;;;;9.80;7.70;;;;;;;;;;5093962;28;20218;-68
2023/06/10 00:35:47;;;;;;;8.63;7.67;;;;;;;;;;5093973;28;20177;-68
2023/06/10 00:38:14;;;;;;;8.23;7.43;;;;;;;;;;5093868;28;20216;-68
2023/06/10 00:40:40;;;;;;;10.00;7.67;;;;;;;;;;5093746;28;20173;-69
2023/06/10 00:43:07;;;;;;;8.10;7.30;;;;;;;;;;5093888;28;20201;-68
2023/06/10 00:45:33;;;;;;;9.80;7.90;;;;;;;;;;5093778;28;20205;-68
2023/06/10 00:48:02;;;;;;;12.43;7.83;;;;;;;;;;5093973;28;20184;-69
2023/06/10 00:50:28;;;;;;;9.70;8.00;;;;;;;;;;5093617;28;20181;-68
2023/06/10 00:52:54;;;;;;;8.40;7.60;;;;;;;;;;5075360;28;20197;-68
2023/06/10 00:55:21;;;;;;;8.23;7.27;;;;;;;;;;5093553;28;20264;-69
2023/06/10 00:57:48;;;;;;;11.03;7.77;;;;;;;;;;5075345;28;20181;-69
2023/06/10 01:00:15;;;;;;;8.37;7.50;;;;;;;;;;5093474;28;20651;-69
2023/06/10 01:02:41;;;;;;;10.30;7.53;;;;;;;;;;5093304;28;20197;-69
2023/06/10 01:05:07;;;;;;;8.57;7.07;;;;;;;;;;5093675;28;20181;-69
2023/06/10 01:07:37;;;;;;;9.20;7.57;;;;;;;;;;5093389;28;20549;-69
2023/06/10 01:10:15;;;;;;;8.10;7.30;;;;;;;;;;5093927;28;20593;-69
2023/06/10 01:12:48;;;;;;;8.10;7.30;;;;;;;;;;5093231;28;20217;-68
2023/06/10 01:15:15;;;;;;;10.43;7.30;;;;;;;;;;5075121;28;20177;-69
2023/06/10 01:17:57;;;;;;;10.23;7.50;;;;;;;;;;5075177;28;20267;-68
2023/06/10 01:20:24;;;;;;;8.63;7.83;;;;;;;;;;5093215;28;20180;-68
2023/06/10 01:22:50;;;;;;;11.20;7.33;;;;;;;;;;5092878;28;20209;-68
2023/06/10 01:25:17;;;;;;;8.03;7.30;;;;;;;;;;5093068;28;20191;-69
2023/06/10 01:27:44;;;;;;;8.77;7.77;;;;;;;;;;5093139;28;20180;-69
2023/06/10 01:30:16;;;;;;;8.90;8.00;;;;;;;;;;5093614;28;20173;-69
2023/06/10 01:32:45;;;;;;;7.97;7.17;;;;;;;;;;5093005;28;20228;-69
2023/06/10 01:35:11;;;;;;;10.57;7.57;;;;;;;;;;5093249;28;20179;-69
2023/06/10 01:37:39;;;;;;;9.33;8.33;;;;;;;;;;5093013;28;20638;-69
2023/06/10 01:40:06;;;;;;;10.77;7.33;;;;;;;;;;5074911;28;20177;-69
2023/06/10 01:42:32;;;;;;;9.37;7.90;;;;;;;;;;5093495;28;20197;-68
2023/06/10 01:44:58;;;;;;;8.20;7.40;;;;;;;;;;5093003;28;20177;-69
2023/06/10 01:47:24;;;;;;;12.43;8.23;;;;;;;;;;5074802;28;20177;-69
2023/06/10 01:49:50;;;;;;;11.03;8.30;;;;;;;;;;5092914;28;20226;-69
2023/06/10 01:52:16;;;;;;;8.93;7.80;;;;;;;;;;5092918;28;20211;-68
2023/06/10 01:54:43;;;;;;;9.60;8.60;;;;;;;;;;5075156;28;20213;-69
2023/06/10 01:57:09;;;;;;;10.53;8.20;;;;;;;;;;5093433;28;20711;-69
2023/06/10 01:59:37;;;;;;;9.77;8.53;;;;;;;;;;5092848;28;20196;-68
2023/06/10 02:02:03;;;;;;;10.73;8.30;;;;;;;;;;5074711;28;20212;-68
2023/06/10 02:04:29;;;;;;;16.03;9.53;;;;;;;;;;5074647;28;20228;-69
2023/06/10 02:06:55;;;;;;;10.57;9.23;;;;;;;;;;5074692;28;20216;-69
2023/06/10 02:09:22;;;;;;;11.93;9.30;;;;;;;;;;5092832;28;20216;-68
2023/06/10 02:11:48;;;;;;;11.73;9.87;;;;;;;;;;5092728;28;20246;-69
2023/06/10 02:14:14;;;;;;;13.87;9.50;;;;;;;;;;5074651;28;20181;-68
2023/06/10 02:16:41;;;;;;;12.77;10.32;;;;;;;;;;5091629;28;20382;-68
2023/06/10 02:19:07;;;;;;;11.10;10.00;;;;;;;;;;5074729;28;20563;-68
2023/06/10 02:21:36;;;;;;;14.87;10.10;;;;;;;;;;5092638;28;20208;-68
2023/06/10 02:24:02;;;;;;;11.87;9.90;;;;;;;;;;5092667;28;20208;-68
2023/06/10 02:26:29;;;;;;;13.80;10.53;;;;;;;;;;5074618;28;20663;-68
2023/06/10 02:28:55;;;;;;;12.13;9.63;;;;;;;;;;5096234;28;20177;-68
2023/06/10 02:31:21;;;;;;;13.53;10.30;;;;;;;;;;5078033;28;20547;-68
2023/06/10 02:33:47;;;;;;;12.30;10.67;;;;;;;;;;5078172;28;20188;-68
2023/06/10 02:36:13;;;;;;;14.87;10.53;;;;;;;;;;5078362;28;20269;-68
2023/06/10 02:38:40;;;;;;;12.20;9.83;;;;;;;;;;5096251;28;20260;-68
2023/06/10 02:41:06;;;;;;;11.67;9.90;;;;;;;;;;5077930;28;20251;-68
2023/06/10 02:43:32;;;;;;;12.23;10.93;;;;;;;;;;5096140;28;20682;-68
2023/06/10 02:45:58;;;;;;;12.03;10.30;;;;;;;;;;5078022;28;20271;-68
2023/06/10 02:48:24;;;;;;;12.73;10.80;;;;;;;;;;5096213;28;20231;-68
2023/06/10 02:50:50;;;;;;;12.47;10.60;;;;;;;;;;5096289;28;20219;-68
2023/06/10 02:53:16;;;;;;;12.83;10.97;;;;;;;;;;5079153;28;20177;-68
2023/06/10 02:55:43;;;;;;;14.00;11.37;;;;;;;;;;5097580;28;20181;-68
2023/06/10 02:58:09;;;;;;;12.57;11.27;;;;;;;;;;5097151;28;20177;-68
2023/06/10 03:00:35;;;;;;;12.57;11.10;;;;;;;;;;5078369;28;20184;-68
2023/06/10 03:03:03;;;;;;;13.20;11.00;;;;;;;;;;5096864;28;20285;-68
2023/06/10 03:05:29;;;;;;;13.17;11.90;;;;;;;;;;5096645;28;20555;-68
2023/06/10 03:07:55;;;;;;;14.47;12.20;;;;;;;;;;5077886;28;20552;-68
2023/06/10 03:10:21;;;;;;;11.97;10.77;;;;;;;;;;5095780;28;20173;-68
2023/06/10 03:12:47;;;;;;;16.97;12.07;;;;;;;;;;5095638;28;20196;-67
2023/06/10 03:15:14;;;;;;;13.93;12.50;;;;;;;;;;5077662;28;20674;-68
2023/06/10 03:17:40;;;;;;;13.67;11.70;;;;;;;;;;5077357;28;20177;-68
2023/06/10 03:20:08;;;;;;;13.77;12.27;;;;;;;;;;5095444;28;20179;-68
2023/06/10 03:22:34;;;;;;;14.97;13.20;;;;;;;;;;5101424;28;20204;-69
2023/06/10 03:25:00;;;;;;;13.53;12.23;;;;;;;;;;5102760;28;20264;-68
2023/06/10 03:27:26;;;;;;;17.40;12.67;;;;;;;;;;5102500;28;20212;-68
2023/06/10 03:29:52;;;;;;;14.20;12.10;;;;;;;;;;5108958;28;20207;-68
2023/06/10 03:32:18;;;;;;;13.80;12.40;;;;;;;;;;5110875;28;20205;-69
2023/06/10 03:34:47;;;;;;;14.40;13.00;;;;;;;;;;5106343;28;20188;-69
2023/06/10 03:37:13;;;;;;;13.93;12.63;;;;;;;;;;5110342;28;20204;-68
2023/06/10 03:39:39;;;;;;;15.67;12.37;;;;;;;;;;5082590;28;20185;-68
2023/06/10 03:42:06;;;;;;;14.00;12.50;;;;;;;;;;5095069;28;20276;-67
2023/06/10 03:44:32;;;;;;;17.00;13.40;;;;;;;;;;5095079;28;20204;-68
2023/06/10 03:46:59;;;;;;;14.00;12.50;;;;;;;;;;5105474;28;20234;-68
2023/06/10 03:49:28;;;;;;;15.97;13.20;;;;;;;;;;5111515;28;20199;-68
2023/06/10 03:51:54;;;;;;;13.93;12.53;;;;;;;;;;5090748;28;20200;-68
2023/06/10 03:54:20;;;;;;;13.80;12.40;;;;;;;;;;5083945;28;20181;-68
2023/06/10 03:56:48;;;;;;;16.27;13.70;;;;;;;;;;5082811;28;20173;-68
2023/06/10 03:59:14;;;;;;;18.83;13.50;;;;;;;;;;5095068;28;20201;-68
2023/06/10 04:01:41;;;;;;;15.03;13.00;;;;;;;;;;5094645;28;20208;-68
2023/06/10 04:04:07;;;;;;;15.53;13.93;;;;;;;;;;5095163;28;20197;-68
2023/06/10 04:06:33;;;;;;;16.43;13.50;;;;;;;;;;5076432;28;20181;-68
2023/06/10 04:08:59;;;;;;;17.57;14.07;;;;;;;;;;5076496;28;20527;-68
2023/06/10 04:11:25;;;;;;;14.97;13.53;;;;;;;;;;5076390;28;20200;-68
2023/06/10 04:13:51;;;;;;;15.03;13.37;;;;;;;;;;5076597;28;20642;-68
2023/06/10 04:16:17;;;;;;;15.57;13.10;;;;;;;;;;5094568;28;20179;-68
2023/06/10 04:18:43;;;;;;;18.03;13.30;;;;;;;;;;5094717;28;20709;-68
2023/06/10 04:21:09;;;;;;;16.00;13.40;;;;;;;;;;5094545;28;20265;-68
2023/06/10 04:23:38;;;;;;;14.20;12.70;;;;;;;;;;5076393;28;20262;-68
2023/06/10 04:26:05;;;;;;;15.50;13.27;;;;;;;;;;5094477;28;20180;-68
2023/06/10 04:28:31;;;;;;;14.83;12.50;;;;;;;;;;5094484;28;20238;-68
2023/06/10 04:30:57;;;;;;;15.87;13.50;;;;;;;;;;5094148;28;20200;-67
2023/06/10 04:33:24;;;;;;;14.27;12.90;;;;;;;;;;5094445;28;20177;-68
2023/06/10 04:35:50;;;;;;;14.30;12.80;;;;;;;;;;5075909;28;20188;-68
2023/06/10 04:38:16;;;;;;;13.83;12.43;;;;;;;;;;5076001;28;20185;-67
2023/06/10 04:40:42;;;;;;;14.23;12.93;;;;;;;;;;5094023;28;20173;-68
2023/06/10 04:43:08;;;;;;;14.63;13.13;;;;;;;;;;5094374;28;20540;-68
2023/06/10 04:45:34;;;;;;;14.20;12.63;;;;;;;;;;5094148;28;20213;-69
2023/06/10 04:48:00;;;;;;;15.67;11.93;;;;;;;;;;5093752;28;20264;-69
2023/06/10 04:50:27;;;;;;;13.97;12.27;;;;;;;;;;5093262;28;20181;-68
2023/06/10 04:52:53;;;;;;;15.00;11.60;;;;;;;;;;5094622;28;20197;-69
2023/06/10 04:55:19;;;;;;;13.17;11.63;;;;;;;;;;5115054;22;20240;-65
2023/06/10 04:57:45;;;;;;;12.40;11.00;;;;;;;;;;5094283;28;20239;-65
2023/06/10 05:00:11;;;;;;;17.23;11.77;;;;;;;;;;5093684;28;20227;-65
2023/06/10 05:02:37;;;;;;;12.03;10.83;;;;;;;;;;5093623;28;20174;-65
2023/06/10 05:05:03;;;;;;;13.00;11.70;;;;;;;;;;5093701;28;20756;-66
2023/06/10 05:07:29;;;;;;;12.50;11.20;;;;;;;;;;5094119;28;20173;-66
2023/06/10 05:09:55;;;;;;;11.43;10.37;;;;;;;;;;5093478;28;20264;-66
2023/06/10 05:12:22;;;;;;;13.70;11.40;;;;;;;;;;5093704;28;20169;-66
2023/06/10 05:14:48;;;;;;;14.20;11.57;;;;;;;;;;5093959;28;20195;-66
2023/06/10 05:17:14;;;;;;;12.50;11.00;;;;;;;;;;5075482;28;20268;-64
2023/06/10 05:19:41;;;;;;;11.80;10.60;;;;;;;;;;5075536;28;20638;-64
2023/06/10 05:22:07;;;;;;;12.27;11.07;;;;;;;;;;5075391;28;20185;-65
2023/06/10 05:24:33;;;;;;;12.43;11.10;;;;;;;;;;5075222;28;20303;-66
2023/06/10 05:26:59;;;;;;;16.67;10.40;;;;;;;;;;5075376;28;20258;-64
2023/06/10 05:29:25;;;;;;;12.20;11.00;;;;;;;;;;5093632;28;20180;-64
2023/06/10 05:31:51;;;;;;;14.87;10.57;;;;;;;;;;5093332;28;20197;-64
2023/06/10 05:34:17;;;;;;;14.00;10.77;;;;;;;;;;5093249;28;20201;-65
2023/06/10 05:36:43;;;;;;;12.37;9.97;;;;;;;;;;5093965;28;20184;-65
2023/06/10 05:39:13;;;;;;;11.57;10.33;;;;;;;;;;5075371;28;20185;-64
2023/06/10 05:41:39;;;;;;;12.00;9.90;;;;;;;;;;5093404;28;20177;-65
2023/06/10 05:44:05;;;;;;;13.20;10.33;;;;;;;;;;5093204;28;20560;-65
2023/06/10 05:46:31;;;;;;;11.87;9.40;;;;;;;;;;5093380;28;20205;-64
2023/06/10 05:48:57;;;;;;;10.70;9.53;;;;;;;;;;5093457;28;20238;-65
2023/06/10 05:51:22;;;;;;;19.07;9.70;;;;;;;;;;5093552;28;20173;-65
2023/06/10 05:53:48;;;;;;;13.87;9.10;;;;;;;;;;5074916;28;20208;-66
2023/06/10 05:56:15;;;;;;;11.43;9.13;;;;;;;;;;5093432;28;20537;-66
2023/06/10 05:58:41;;;;;;;10.03;9.03;;;;;;;;;;5093443;28;20223;-66
2023/06/10 06:01:07;;;;;;;10.40;9.23;;;;;;;;;;5074906;28;20184;-66
2023/06/10 06:03:33;;;;;;;13.73;8.73;;;;;;;;;;5078086;28;20207;-66
2023/06/10 06:05:59;;;;;;;13.07;8.90;;;;;;;;;;5078910;28;20201;-66
2023/06/10 06:08:25;;;;;;;13.10;8.70;;;;;;;;;;5097589;28;20184;-65
2023/06/10 06:10:51;;;;;;;9.30;8.33;;;;;;;;;;5097118;28;20169;-66
2023/06/10 06:13:17;;;;;;;11.97;8.33;;;;;;;;;;5078680;28;20177;-66
2023/06/10 06:15:43;;;;;;;9.47;8.43;;;;;;;;;;5096786;28;20208;-66
2023/06/10 06:18:09;;;;;;;14.03;8.87;;;;;;;;;;5078536;28;20720;-66
2023/06/10 06:20:35;;;;;;;10.87;8.13;;;;;;;;;;5078910;28;20177;-65
2023/06/10 06:23:01;;;;;;;13.73;8.97;;;;;;;;;;5078590;28;20188;-65
2023/06/10 06:25:27;;;;;;;10.30;8.70;;;;;;;;;;5096647;28;20193;-66
2023/06/10 06:27:53;;;;;;;9.90;7.70;;;;;;;;;;5078399;28;20662;-65
2023/06/10 06:30:19;;;;;;;13.33;7.97;;;;;;;;;;5078513;28;20173;-66
2023/06/10 06:32:45;;;;;;;10.60;8.20;;;;;;;;;;5096878;28;20184;-64
2023/06/10 06:35:11;;;;;;;10.53;8.40;;;;;;;;;;5096764;28;20196;-65
2023/06/10 06:37:37;;;;;;;19.23;8.80;;;;;;;;;;5096595;28;20592;-65
2023/06/10 06:40:03;;;;;;;11.63;8.77;;;;;;;;;;5078410;28;20173;-64
2023/06/10 06:42:30;;;;;;;10.93;7.80;;;;;;;;;;5078232;28;20651;-69
2023/06/10 06:44:56;;;;;;;10.30;8.07;;;;;;;;;;5096649;28;20631;-65
2023/06/10 06:47:22;;;;;;;12.70;9.20;;;;;;;;;;5096938;28;20173;-65
2023/06/10 06:49:48;;;;;;;9.97;8.13;;;;;;;;;;5096299;28;20196;-65
2023/06/10 06:52:14;;;;;;;9.57;7.93;;;;;;;;;;5078179;28;20174;-65
2023/06/10 06:54:40;;;;;;;12.43;7.70;;;;;;;;;;5096192;28;20216;-65
2023/06/10 06:57:06;;;;;;;11.83;7.63;;;;;;;;;;5078055;28;20181;-66
2023/06/10 06:59:32;;;;;;;9.40;7.50;;;;;;;;;;5096113;28;20259;-66
2023/06/10 07:01:58;;;;;;;11.30;7.70;;;;;;;;;;5096104;28;20215;-65
2023/06/10 07:04:24;;;;;;;11.17;7.37;;;;;;;;;;5077637;28;20217;-66
2023/06/10 07:06:51;;;;;;;9.20;6.60;;;;;;;;;;5077893;28;20268;-66
2023/06/10 07:09:17;;;;;;;9.83;7.50;;;;;;;;;;5096124;28;20173;-66
2023/06/10 07:11:43;;;;;;;13.80;7.23;;;;;;;;;;5095860;28;20177;-66
2023/06/10 07:14:09;;;;;;;10.77;7.43;;;;;;;;;;5095473;28;20272;-66
2023/06/10 07:16:34;;;;;;;7.83;7.07;;;;;;;;;;5077730;28;20607;-66
2023/06/10 07:19:00;;;;;;;9.33;7.17;;;;;;;;;;5095755;28;20273;-66
2023/06/10 07:21:28;;;;;;;11.33;7.43;;;;;;;;;;5095910;28;20230;-66
2023/06/10 07:23:54;;;;;;;13.83;7.87;;;;;;;;;;5095566;28;20225;-66
2023/06/10 07:26:22;;;;;;;12.30;7.53;;;;;;;;;;5077632;28;20177;-66
2023/06/10 07:28:48;;;;;;;9.97;7.17;;;;;;;;;;5095501;28;20631;-66
2023/06/10 07:31:14;;;;;;;12.13;7.13;;;;;;;;;;5095743;28;20180;-66
2023/06/10 07:33:40;;;;;;;9.23;7.37;;;;;;;;;;5077220;28;20268;-66
2023/06/10 07:36:07;;;;;;;11.50;7.90;;;;;;;;;;5095889;28;20310;-66
2023/06/10 07:38:33;;;;;;;15.70;7.00;;;;;;;;;;5095699;28;20186;-66
2023/06/10 07:40:59;;;;;;;13.47;7.60;;;;;;;;;;5096069;28;20185;-66
2023/06/10 07:43:25;;;;;;;10.47;6.77;;;;;;;;;;5095856;28;20378;-67
2023/06/10 07:45:51;;;;;;;7.30;6.60;;;;;;;;;;5095660;28;20662;-67
2023/06/10 07:48:17;;;;;;;9.23;6.80;;;;;;;;;;5077232;28;20188;-67
2023/06/10 07:50:43;;;;;;;8.33;6.90;;;;;;;;;;5095975;28;20251;-67
2023/06/10 07:53:09;;;;;;;8.20;6.60;;;;;;;;;;5077576;28;20189;-67
2023/06/10 07:55:35;;;;;;;8.93;6.47;;;;;;;;;;5077295;28;20228;-68
2023/06/10 07:58:01;;;;;;;7.90;6.70;;;;;;;;;;5096208;28;20177;-67
2023/06/10 08:00:27;;;;;;;9.93;6.83;;;;;;;;;;5077642;28;20173;-67
2023/06/10 08:02:53;;;;;;;9.37;6.40;;;;;;;;;;5077232;28;20643;-67
2023/06/10 08:05:20;;;;;;;11.17;6.87;;;;;;;;;;5095319;28;20216;-68
2023/06/10 08:07:46;;;;;;;8.40;6.10;;;;;;;;;;5095408;28;20170;-67
2023/06/10 08:10:12;;;;;;;9.97;6.50;;;;;;;;;;5095293;28;20256;-67
2023/06/10 08:12:38;;;;;;;16.70;7.53;;;;;;;;;;5095347;28;20174;-67
2023/06/10 08:15:04;;;;;;;19.70;8.83;;;;;;;;;;5094777;28;20203;-66
2023/06/10 08:17:30;;;;;;;10.00;6.83;;;;;;;;;;5076536;28;20191;-66
2023/06/10 08:19:56;;;;;;;9.33;7.47;;;;;;;;;;5094634;28;20180;-66
2023/06/10 08:22:22;;;;;;;8.37;6.37;;;;;;;;;;5076550;28;20181;-67
2023/06/10 08:24:48;;;;;;;7.93;6.43;;;;;;;;;;5075772;28;20205;-66
2023/06/10 08:27:14;;;;;;;12.27;6.50;;;;;;;;;;5077054;28;20188;-66
2023/06/10 08:29:40;;;;;;;9.67;6.87;;;;;;;;;;5095572;28;20271;-65
2023/06/10 08:32:07;;;;;;;14.27;7.00;;;;;;;;;;5095398;28;20624;-66
2023/06/10 08:34:35;;;;;;;17.43;7.90;;;;;;;;;;5094474;28;20197;-66
2023/06/10 08:37:01;;;;;;;13.03;8.70;;;;;;;;;;5076321;28;20182;-67
2023/06/10 08:39:27;;;;;;;14.97;7.60;;;;;;;;;;5094463;28;20589;-66
2023/06/10 08:42:06;;;;;;;11.10;6.70;;;;;;;;;;5094757;28;20256;-64
2023/06/10 08:44:33;;;;;;;10.43;6.73;;;;;;;;;;5094356;28;20205;-66
2023/06/10 08:47:00;;;;;;;10.27;6.70;;;;;;;;;;5076147;28;20252;-64
2023/06/10 08:49:26;;;;;;;9.67;5.77;;;;;;;;;;5093995;28;20170;-67
2023/06/10 08:51:55;;;;;;;12.63;7.00;;;;;;;;;;5094025;28;20184;-67
2023/06/10 08:54:22;;;;;;;12.07;6.27;;;;;;;;;;5093722;28;20217;-64
2023/06/10 08:56:51;;;;;;;12.37;6.30;;;;;;;;;;5093862;28;20188;-65
2023/06/10 08:59:17;;;;;;;7.30;6.00;;;;;;;;;;5093913;28;20181;-65
2023/06/10 09:01:44;;;;;;;9.47;7.07;;;;;;;;;;5094131;28;20180;-65
2023/06/10 09:04:11;;;;;;;10.70;6.50;;;;;;;;;;5093708;28;20204;-65
2023/06/10 09:06:38;;;;;;;11.73;7.43;;;;;;;;;;5093936;28;20177;-65
2023/06/10 09:09:05;;;;;;;10.43;7.30;;;;;;;;;;5075754;28;20184;-65
2023/06/10 09:11:31;;;;;;;11.40;7.87;;;;;;;;;;5075527;28;20657;-65
2023/06/10 09:13:57;;;;;;;8.13;7.33;;;;;;;;;;5075455;28;20223;-67
2023/06/10 09:16:24;;;;;;;12.80;8.40;;;;;;;;;;5094240;28;20173;-65
2023/06/10 09:18:54;;;;;;;10.40;6.57;;;;;;;;;;5075485;28;20272;-65
2023/06/10 09:21:21;;;;;;;10.93;7.07;;;;;;;;;;5094173;28;20260;-65
2023/06/10 09:23:47;;;;;;;12.57;7.10;;;;;;;;;;5093354;28;20247;-65
2023/06/10 09:26:13;;;;;;;12.93;7.23;;;;;;;;;;5093525;28;20661;-65
2023/06/10 09:28:40;;;;;;;11.17;7.30;;;;;;;;;;5093499;28;20177;-65
2023/06/10 09:31:07;;;;;;;11.37;6.83;;;;;;;;;;5093491;28;20181;-65
2023/06/10 09:33:33;;;;;;;11.40;7.17;;;;;;;;;;5093436;28;20181;-66
2023/06/10 09:36:01;;;;;;;14.60;7.40;;;;;;;;;;5075866;28;20205;-68
2023/06/10 09:38:30;;;;;;;9.37;7.47;;;;;;;;;;5097803;28;20181;-67
2023/06/10 09:40:56;;;;;;;13.53;6.97;;;;;;;;;;5079438;28;20185;-66
2023/06/10 09:43:22;;;;;;;10.80;7.03;;;;;;;;;;5097466;28;20700;-66
2023/06/10 09:45:49;;;;;;;12.30;7.20;;;;;;;;;;5097318;28;20287;-68
2023/06/10 09:48:15;;;;;;;8.33;7.27;;;;;;;;;;5097546;28;20248;-67
2023/06/10 09:50:45;;;;;;;9.33;6.80;;;;;;;;;;5079367;28;20209;-67
2023/06/10 09:53:11;;;;;;;10.17;7.40;;;;;;;;;;5097450;28;20181;-65
2023/06/10 09:55:41;;;;;;;13.53;7.27;;;;;;;;;;5097174;28;20577;-66
2023/06/10 09:58:07;;;;;;;9.33;7.53;;;;;;;;;;5097268;28;20639;-65
2023/06/10 10:00:34;;;;;;;11.43;7.43;;;;;;;;;;5079155;28;20199;-66
2023/06/10 10:03:00;;;;;;;16.23;7.33;;;;;;;;;;5078799;28;20181;-66
2023/06/10 10:05:26;;;;;;;11.73;7.43;;;;;;;;;;5097157;28;20666;-65
2023/06/10 10:07:52;;;;;;;12.53;7.20;;;;;;;;;;5097613;28;20169;-65
2023/06/10 10:10:19;;;;;;;14.60;7.80;;;;;;;;;;5097231;28;20177;-66
2023/06/10 10:12:46;;;;;;;8.40;7.33;;;;;;;;;;5097179;28;20173;-66
2023/06/10 10:15:12;;;;;;;8.57;7.30;;;;;;;;;;5097153;28;20212;-66
2023/06/10 10:17:47;;;;;;;7.77;6.97;;;;;;;;;;5079641;28;20578;-67
2023/06/10 10:20:15;;;;;;;7.43;6.73;;;;;;;;;;5079451;28;20567;-67
2023/06/10 10:22:42;;;;;;;10.37;6.70;;;;;;;;;;5097454;28;20231;-66
2023/06/10 10:25:12;;;;;;;11.07;7.80;;;;;;;;;;5096914;28;20215;-67
2023/06/10 10:27:44;;;;;;;13.20;7.73;;;;;;;;;;5097204;28;20174;-66
2023/06/10 10:30:11;;;;;;;8.80;7.37;;;;;;;;;;5078490;28;20643;-66
2023/06/10 10:32:42;;;;;;;10.17;7.23;;;;;;;;;;5096601;28;20648;-66
2023/06/10 10:35:09;;;;;;;14.70;7.97;;;;;;;;;;5078627;28;20200;-66
2023/06/10 10:37:36;;;;;;;10.93;7.27;;;;;;;;;;5078489;28;20191;-66
2023/06/10 10:40:03;;;;;;;9.00;7.07;;;;;;;;;;5078610;28;20234;-66
2023/06/10 10:42:29;;;;;;;9.60;7.17;;;;;;;;;;5078512;28;20269;-66
2023/06/10 10:44:55;;;;;;;7.50;6.67;;;;;;;;;;5078151;28;20220;-68
2023/06/10 10:47:22;;;;;;;8.87;6.70;;;;;;;;;;5078079;28;20173;-67
2023/06/10 10:49:50;;;;;;;12.73;6.83;;;;;;;;;;5095929;28;20547;-68
2023/06/10 10:52:16;;;;;;;8.60;7.10;;;;;;;;;;5096724;28;20202;-69
2023/06/10 10:54:50;;;;;;;11.13;7.67;;;;;;;;;;5095866;28;20297;-68
2023/06/10 10:57:16;;;;;;;11.47;7.20;;;;;;;;;;5078221;28;20208;-69
2023/06/10 10:59:45;;;;;;;11.40;6.90;;;;;;;;;;5096459;28;20204;-68
2023/06/10 11:02:11;;;;;;;10.77;7.67;;;;;;;;;;5117191;22;20598;-69
2023/06/10 11:04:37;;;;;;;10.80;7.27;;;;;;;;;;5077855;28;20211;-69
2023/06/10 11:07:07;;;;;;;8.00;7.20;;;;;;;;;;5077887;28;20177;-69
2023/06/10 11:09:33;;;;;;;8.97;6.60;;;;;;;;;;5096431;28;20264;-69
2023/06/10 11:11:59;;;;;;;8.93;8.03;;;;;;;;;;5079388;28;20236;-69
2023/06/10 11:14:29;;;;;;;10.97;7.70;;;;;;;;;;5100063;28;20601;-69
2023/06/10 11:16:57;;;;;;;8.20;6.97;;;;;;;;;;5098418;28;20174;-69
2023/06/10 11:19:34;;;;;;;8.67;7.10;;;;;;;;;;5081000;28;20177;-69
2023/06/10 11:22:01;;;;;;;13.50;7.63;;;;;;;;;;5078875;28;20204;-69
2023/06/10 11:24:27;;;;;;;10.87;6.90;;;;;;;;;;5078160;28;20709;-69
2023/06/10 11:26:53;;;;;;;12.83;7.03;;;;;;;;;;5095957;28;20178;-69
2023/06/10 11:29:20;;;;;;;7.97;7.17;;;;;;;;;;5095472;28;20185;-69
2023/06/10 11:31:49;;;;;;;10.53;7.33;;;;;;;;;;5095545;28;20193;-69
2023/06/10 11:34:15;;;;;;;7.80;7.03;;;;;;;;;;5095569;28;20177;-69
2023/06/10 11:36:44;;;;;;;8.43;6.65;;;;;;;;;;5095715;28;20176;-69
2023/06/10 11:39:10;;;;;;;9.93;7.70;;;;;;;;;;5075854;28;20378;-69
2023/06/10 11:41:38;;;;;;;7.87;7.10;;;;;;;;;;5095391;28;20200;-69
2023/06/10 11:44:11;;;;;;;7.73;7.00;;;;;;;;;;5076878;28;20273;-69
2023/06/10 11:46:37;;;;;;;8.13;7.27;;;;;;;;;;5076908;28;20177;-69
2023/06/10 11:49:05;;;;;;;11.13;7.57;;;;;;;;;;5094296;28;20485;-70
2023/06/10 11:51:33;;;;;;;9.20;7.53;;;;;;;;;;5094380;28;20370;-69
2023/06/10 11:53:59;;;;;;;9.20;7.70;;;;;;;;;;5094708;28;20389;-69
2023/06/10 11:56:26;;;;;;;9.63;7.50;;;;;;;;;;5094161;28;20380;-68
2023/06/10 11:58:57;;;;;;;10.63;8.07;;;;;;;;;;5075317;28;20435;-69
2023/06/10 12:01:24;;;;;;;8.57;7.68;;;;;;;;;;5074533;28;20406;-68
2023/06/10 12:04:09;;;;;;;10.52;7.75;;;;;;;;;;5093720;28;20406;-68
2023/06/10 12:06:48;;;;;;;8.55;7.53;;;;;;;;;;5075836;28;20374;-68
2023/06/10 12:09:15;;;;;;;8.70;7.80;;;;;;;;;;5075164;28;20370;-69
2023/06/10 12:11:43;;;;;;;10.37;7.53;;;;;;;;;;5093181;28;20460;-68
2023/06/10 12:14:09;;;;;;;9.90;7.50;;;;;;;;;;5075056;28;20382;-69
2023/06/10 12:16:35;;;;;;;9.10;7.63;;;;;;;;;;5094713;28;20552;-67
2023/06/10 12:19:05;;;;;;;7.77;7.00;;;;;;;;;;5094393;28;20582;-68
2023/06/10 12:21:32;;;;;;;12.90;6.77;;;;;;;;;;5094250;28;20208;-68
2023/06/10 12:24:02;;;;;;;8.73;6.90;;;;;;;;;;5094284;28;20201;-68
2023/06/10 12:26:38;;;;;;;8.93;7.28;;;;;;;;;;5094133;28;20177;-67
2023/06/10 12:29:14;;;;;;;7.37;6.73;;;;;;;;;;5076039;28;20646;-67
2023/06/10 12:31:59;;;;;;;7.13;6.43;;;;;;;;;;5094823;28;20693;-67
2023/06/10 12:34:42;;;;;;;11.03;8.20;;;;;;;;;;5094251;28;20177;-67
2023/06/10 12:37:16;;;;;;;9.32;6.57;;;;;;;;;;5076026;28;20174;-68
2023/06/10 12:39:42;;;;;;;7.72;6.60;;;;;;;;;;5076233;28;20192;-67
2023/06/10 12:42:12;;;;;;;11.10;7.55;;;;;;;;;;5094140;28;20199;-67
2023/06/10 12:44:41;;;;;;;8.10;7.07;;;;;;;;;;5093914;28;20197;-67
2023/06/10 12:47:08;;;;;;;8.93;7.57;;;;;;;;;;5075989;28;20176;-67
2023/06/10 12:49:35;;;;;;;12.70;7.28;;;;;;;;;;5075934;28;20557;-67
2023/06/10 12:52:01;;;;;;;9.80;7.00;;;;;;;;;;5093725;28;20193;-67
2023/06/10 12:54:27;;;;;;;9.23;7.63;;;;;;;;;;5093744;28;20661;-68
2023/06/10 12:56:53;;;;;;;8.32;7.38;;;;;;;;;;5094035;28;20251;-67
2023/06/10 12:59:19;;;;;;;11.32;7.30;;;;;;;;;;5093812;28;20209;-67
2023/06/10 13:01:45;;;;;;;7.90;6.38;;;;;;;;;;5093763;28;20231;-67
2023/06/10 13:04:11;;;;;;;8.25;7.32;;;;;;;;;;5093460;28;20631;-68
2023/06/10 13:06:38;;;;;;;8.55;7.15;;;;;;;;;;5075464;28;20177;-68
2023/06/10 13:09:06;;;;;;;9.80;7.35;;;;;;;;;;5093581;28;20542;-68
2023/06/10 13:11:32;;;;;;;10.98;7.95;;;;;;;;;;5092998;28;20604;-68
2023/06/10 13:13:58;;;;;;;8.80;7.70;;;;;;;;;;5093871;28;20176;-67
2023/06/10 13:16:25;;;;;;;11.93;7.45;;;;;;;;;;5093398;28;20252;-67
2023/06/10 13:18:51;;;;;;;11.48;7.28;;;;;;;;;;5093407;28;20199;-68
2023/06/10 13:21:17;;;;;;;10.20;7.50;;;;;;;;;;5075122;28;20232;-67
2023/06/10 13:23:47;;;;;;;8.77;7.15;;;;;;;;;;5075288;28;20745;-67
2023/06/10 13:26:13;;;;;;;16.15;7.47;;;;;;;;;;5093446;28;20218;-67
2023/06/10 13:28:39;;;;;;;7.85;7.15;;;;;;;;;;5093232;28;20169;-67
2023/06/10 13:31:05;;;;;;;7.30;6.60;;;;;;;;;;5093472;28;20602;-68
2023/06/10 13:33:31;;;;;;;7.90;7.07;;;;;;;;;;5093234;28;20559;-69
2023/06/10 13:35:57;;;;;;;9.85;7.47;;;;;;;;;;5093497;28;20188;-68
2023/06/10 13:38:23;;;;;;;7.72;6.90;;;;;;;;;;5093247;28;20181;-68
2023/06/10 13:40:50;;;;;;;8.95;7.15;;;;;;;;;;5075057;28;20204;-65
2023/06/10 13:43:16;;;;;;;8.40;7.25;;;;;;;;;;5093185;28;20255;-68
2023/06/10 13:45:42;;;;;;;8.70;7.80;;;;;;;;;;5093260;28;20263;-68
2023/06/10 13:48:08;;;;;;;6.85;6.15;;;;;;;;;;5075002;28;20180;-68
2023/06/10 13:50:34;;;;;;;8.35;7.63;;;;;;;;;;5092950;28;20195;-67
2023/06/10 13:53:00;;;;;;;13.10;7.80;;;;;;;;;;5074893;28;20647;-67
2023/06/10 13:55:26;;;;;;;8.63;7.15;;;;;;;;;;5074851;28;20239;-67
2023/06/10 13:57:52;;;;;;;7.30;6.70;;;;;;;;;;5092942;28;20231;-68
2023/06/10 14:00:18;;;;;;;8.20;7.28;;;;;;;;;;5092693;28;20234;-67
2023/06/10 14:02:46;;;;;;;9.48;7.43;;;;;;;;;;5093040;28;20173;-67
2023/06/10 14:05:12;;;;;;;8.40;7.53;;;;;;;;;;5093058;28;20193;-68
2023/06/10 14:07:39;;;;;;;7.45;6.68;;;;;;;;;;5074833;28;20542;-67
2023/06/10 14:10:05;;;;;;;9.02;7.50;;;;;;;;;;5093179;28;20166;-67
2023/06/10 14:12:31;;;;;;;10.00;7.30;;;;;;;;;;5092778;28;20231;-67
2023/06/10 14:14:57;;;;;;;8.60;7.30;;;;;;;;;;5074822;28;20220;-68
2023/06/10 14:17:23;;;;;;;8.32;7.53;;;;;;;;;;5092932;28;20648;-66
2023/06/10 14:19:49;;;;;;;11.30;7.53;;;;;;;;;;5074649;28;20169;-66
2023/06/10 14:22:15;;;;;;;8.88;7.85;;;;;;;;;;5093343;28;20552;-67
2023/06/10 14:24:41;;;;;;;10.15;7.88;;;;;;;;;;5078060;28;20693;-66
2023/06/10 14:27:07;;;;;;;7.15;6.45;;;;;;;;;;5096948;28;20169;-66
2023/06/10 14:29:33;;;;;;;8.90;6.88;;;;;;;;;;5078232;28;20177;-65